createdAt,value
2022-11-29T05:04:03.205Z,72.66
2022-11-29T05:06:47.886Z,71.88
2022-11-29T05:17:11.793Z,72.29
2022-11-29T05:19:43.735Z,71.51
2022-11-29T05:22:22.767Z,72.37
2022-11-29T05:25:01.405Z,72.46
2022-11-29T05:27:31.200Z,71.95
2022-11-29T05:30:53.574Z,72.22
2022-11-29T05:33:49.474Z,72.76
2022-11-29T05:36:28.911Z,72.45
2022-11-29T05:39:04.871Z,72.67
2022-11-29T05:41:59.858Z,72.89
2022-11-29T05:59:32.138Z,71.88
2022-11-29T06:06:00.478Z,70.87
2022-11-29T06:17:46.551Z,71.31
2022-11-29T06:23:53.882Z,71.29
2022-11-29T06:49:32.439Z,71.01
2022-11-29T06:52:19.888Z,71.87
2022-11-29T06:55:16.805Z,71.63
2022-11-29T06:58:04.789Z,70.99
2022-11-29T07:01:22.735Z,71.57
2022-11-29T07:07:40.182Z,72.35
2022-11-29T07:11:08.895Z,72.30
2022-11-29T07:38:41.387Z,73.19
2022-11-29T07:45:23.696Z,71.96
2022-11-29T07:48:02.676Z,72.51
2022-11-29T08:11:13.932Z,72.09
2022-11-29T08:13:41.424Z,72.03
2022-11-29T08:16:19.352Z,71.27
2022-11-29T08:23:22.395Z,71.47
2022-11-29T08:25:53.777Z,71.80
2022-11-29T08:37:37.342Z,71.17
2022-11-29T08:43:53.220Z,69.83
2022-11-29T09:05:28.314Z,68.93
2022-11-29T09:52:35.145Z,65.12
2022-11-29T09:55:35.774Z,66.14
2022-11-29T10:01:43.362Z,65.62
2022-11-29T10:07:13.654Z,65.34
2022-11-29T10:13:03.725Z,66.52
2022-11-29T15:10:54.341Z,66.79
2022-11-29T15:14:02.538Z,66.06
2022-11-29T16:30:29.573Z,69.69
2022-11-29T16:33:02.601Z,69.92
2022-11-29T16:38:32.365Z,69.19
2022-11-29T16:41:09.404Z,69.13
2022-11-29T16:44:04.040Z,69.11
2022-11-29T16:47:26.408Z,69.03
2022-11-29T16:50:35.484Z,68.11
2022-11-29T16:53:46.599Z,68.83
2022-11-29T16:56:15.484Z,69.06
2022-11-29T16:59:16.966Z,69.07
2022-11-29T17:02:13.748Z,69.05
2022-11-29T17:04:43.954Z,69.09
2022-11-29T17:07:30.899Z,68.97
2022-11-29T17:12:42.244Z,68.64
2022-11-29T17:15:30.873Z,68.96
2022-11-29T17:17:57.812Z,68.87
2022-11-29T17:20:33.802Z,68.72
2022-11-29T17:26:07.939Z,69.08
2022-11-29T17:37:56.108Z,68.55
2022-11-29T17:40:32.218Z,68.67
2022-11-29T17:43:00.104Z,68.55
2022-11-29T17:45:44.746Z,68.47
2022-11-29T17:48:40.618Z,68.66
2022-11-29T17:52:10.245Z,69.19
2022-11-29T17:54:04.138Z,70.02
2022-11-29T17:56:51.346Z,70.19
2022-11-29T17:59:34.954Z,69.95
2022-11-29T18:02:26.665Z,70.65
2022-11-29T18:05:28.968Z,70.54
2022-11-29T18:08:24.669Z,71.16
2022-11-29T18:10:58.703Z,71.54
2022-11-29T18:14:28.984Z,71.77
2022-11-29T18:17:42.973Z,71.91
2022-11-29T18:23:02.481Z,72.40
2022-11-29T18:25:38.701Z,72.23
2022-11-29T18:28:09.836Z,71.65
2022-11-29T18:30:44.201Z,71.66
2022-11-29T18:39:16.552Z,71.29
2022-11-29T18:42:01.297Z,71.32
2022-11-29T18:44:34.136Z,71.39
2022-11-29T18:48:15.773Z,71.20
2022-11-29T18:53:24.208Z,71.75
2022-11-29T18:56:23.056Z,71.47
2022-11-29T18:59:08.124Z,71.92
2022-11-29T19:01:36.499Z,71.87
2022-11-29T19:04:06.865Z,71.33
2022-11-29T19:06:46.265Z,71.67
2022-11-29T19:09:28.448Z,71.78
2022-11-29T19:12:01.364Z,71.56
2022-11-29T19:14:36.832Z,71.69
2022-11-29T19:43:52.004Z,71.35
2022-11-29T19:47:15.716Z,71.46
2022-11-29T19:53:34.189Z,71.52
2022-11-29T20:00:12.429Z,72.00
2022-11-29T20:02:19.902Z,71.61
2022-11-29T20:05:34.842Z,72.46
2022-11-29T20:08:04.765Z,72.17
2022-11-29T20:10:37.685Z,71.97
2022-11-29T20:13:29.857Z,71.86
2022-11-29T20:16:02.002Z,72.34
2022-11-29T20:18:54.718Z,72.21
2022-11-29T20:21:30.972Z,72.16
2022-11-29T20:24:02.671Z,71.86
2022-11-29T20:26:30.759Z,72.05
2022-11-29T20:29:04.600Z,71.96
2022-11-29T20:31:32.142Z,71.93
2022-11-29T20:34:05.366Z,72.15
2022-11-29T20:37:10.604Z,72.00
2022-11-29T20:43:25.177Z,72.58
2022-11-29T21:04:40.227Z,72.86
2022-11-29T21:07:15.929Z,72.86
2022-11-29T21:09:42.777Z,72.72
2022-11-29T21:12:10.286Z,72.61
2022-11-29T21:14:39.077Z,72.47
2022-11-29T21:17:11.724Z,73.01
2022-11-29T21:20:56.935Z,73.21
2022-11-29T21:23:38.416Z,72.47
2022-11-29T21:26:20.837Z,72.51
2022-11-29T21:32:25.534Z,72.88
2022-11-29T21:34:52.473Z,72.94
2022-11-29T21:37:20.627Z,72.75
2022-11-29T21:39:47.796Z,73.18
2022-11-29T21:42:20.194Z,73.09
2022-11-29T21:47:29.014Z,72.51
2022-11-29T21:49:55.932Z,72.89
2022-11-29T21:52:23.746Z,72.64
2022-11-29T21:54:55.475Z,72.74
2022-11-29T21:57:22.265Z,72.67
2022-11-29T21:59:52.877Z,72.69
2022-11-29T22:02:23.788Z,72.47
2022-11-29T22:04:50.597Z,72.18
2022-11-29T22:07:17.563Z,72.74
2022-11-29T22:09:44.426Z,72.72
2022-11-29T22:12:33.832Z,72.11
2022-11-29T22:15:35.724Z,72.27
2022-11-29T22:18:07.558Z,72.14
2022-11-29T22:20:37.390Z,72.23
2022-11-29T22:23:07.205Z,72.23
2022-11-29T22:25:34.045Z,71.94
2022-11-29T22:28:13.072Z,71.61
2022-11-29T22:30:40.021Z,71.77
2022-11-29T22:33:31.565Z,71.64
2022-11-29T22:36:16.880Z,71.23
2022-11-29T22:38:43.721Z,71.98
2022-11-29T22:41:11.430Z,71.79
2022-11-29T22:43:44.914Z,71.83
2022-11-29T22:48:47.139Z,71.85
2022-11-29T22:51:18.633Z,71.24
2022-11-29T22:53:57.849Z,71.89
2022-11-29T22:56:26.236Z,71.69
2022-11-29T22:58:53.022Z,72.01
2022-11-29T23:04:08.713Z,72.13
2022-11-29T23:07:03.596Z,71.60
2022-11-29T23:09:36.481Z,72.14
2022-11-29T23:14:49.228Z,72.35
2022-11-29T23:17:19.776Z,72.39
2022-11-29T23:22:27.960Z,73.15
2022-11-29T23:24:54.773Z,72.52
2022-11-29T23:27:21.575Z,72.86
2022-11-29T23:29:48.389Z,72.91
2022-11-29T23:32:15.729Z,72.80
2022-11-29T23:34:49.556Z,73.12
2022-11-29T23:37:16.481Z,72.67
2022-11-29T23:39:43.297Z,72.93
2022-11-29T23:42:10.132Z,73.17
2022-11-29T23:44:36.900Z,73.01
2022-11-29T23:47:12.881Z,72.53
2022-11-29T23:49:39.703Z,72.18
2022-11-29T23:52:06.512Z,72.37
2022-11-29T23:54:33.286Z,72.28
2022-11-29T23:57:09.269Z,72.57
2022-11-29T23:59:42.096Z,72.16
